Huvudsida
METAR-TAF:

METAR-TAF

Flygplatser :

Karachi, Pakistan

latitud: 24-54N, longitud: 067-08E, höjd: 21 m

Aktuellt väderrapport

Denna rapport gjordes för 16 minuter sedan, klockan 07:55 UTC
Vind 15 kt från väst
Temperatur 36°C
Fuktighet 42%
Tryck 1004 hPa
Sikt: 6000 m

METAR: OPKC 270755Z 26015KT 6000 NSC 36/21 Q1004 NOSIG

Tid: 13:11 (08:11 UTC)

Väderprognos

Denna rapport gjordes för 4 timmar och 11 minuter sedan, klockan 04:00 UTC
Prognos gäller från 27 kl. 06 UTC till 28 kl. 12 UTC
Vind 14 kt från väst i byarna ända upp till 24 kt
Sikt: 5000 m
högt damm drev
Blir
från 27 kl. 19 UTC till 27 kl. 21 UTC
Vind 8 kt från väst i byarna ända upp till 18 kt
Sikt: 5000 m
Brutna moln på en höjd av 2000 ft
torrdis
Från 28 kl. 0600 UTC
Vind 10 kt från väst i byarna ända upp till 20 kt
Sikt: 6000 m
Spridda moln på en höjd av 2000 ft

TAF: OPKC 270400Z 2706/2812 27014G24KT 5000 BLDU NSC BECMG 2719/2721 27008G18KT 5000 HZ BKN020 FM280600 26010G20KT 6000 SCT020

Aktuella väderrapporter och prognoser från 4000 flygplatser (METAR- och TAF-rapporter).

De tillgängliga stationerna syns som gula och röda prickar på kartan.

För musen över prickarna för att se namnen på stationerna.

Klicka sedan för att få väderrapporter och prognoser.

För att ändra kartan: Klicka på de gröna knapparna med ett svart kors på för att zooma in; den gröna knappen med ett streck på för att zooma ut; eller på de gröna pilarna för angränsande kartor.


METAR-TAF: